sensor_id;sensor_type;location;lat;lon;timestamp;pressure;altitude;pressure_sealevel;temperature;humidity
73024;BME280;61199;47.526;8.538;2022-12-18T00:02:06;97400.09;;;0.79;69.92
73024;BME280;61199;47.526;8.538;2022-12-18T00:04:32;97403.38;;;0.84;69.14
73024;BME280;61199;47.526;8.538;2022-12-18T00:06:59;97415.38;;;0.85;69.90
73024;BME280;61199;47.526;8.538;2022-12-18T00:09:25;97412.03;;;0.83;69.07
73024;BME280;61199;47.526;8.538;2022-12-18T00:12:06;97412.53;;;0.68;69.26
73024;BME280;61199;47.526;8.538;2022-12-18T00:14:41;97411.03;;;0.61;69.84
73024;BME280;61199;47.526;8.538;2022-12-18T00:17:08;97410.22;;;0.60;69.91
73024;BME280;61199;47.526;8.538;2022-12-18T00:19:34;97410.00;;;0.66;69.84
73024;BME280;61199;47.526;8.538;2022-12-18T00:22:01;97409.91;;;0.69;69.78
73024;BME280;61199;47.526;8.538;2022-12-18T00:24:27;97421.25;;;0.64;69.63
73024;BME280;61199;47.526;8.538;2022-12-18T00:26:54;97424.63;;;0.66;70.14
73024;BME280;61199;47.526;8.538;2022-12-18T00:29:20;97421.25;;;0.64;70.24
73024;BME280;61199;47.526;8.538;2022-12-18T00:31:46;97421.34;;;0.61;69.81
73024;BME280;61199;47.526;8.538;2022-12-18T00:34:13;97426.19;;;0.70;70.07
73024;BME280;61199;47.526;8.538;2022-12-18T00:36:40;97422.63;;;0.74;69.77
73024;BME280;61199;47.526;8.538;2022-12-18T00:39:07;97420.84;;;0.76;69.59
73024;BME280;61199;47.526;8.538;2022-12-18T00:41:33;97411.63;;;0.69;70.09
73024;BME280;61199;47.526;8.538;2022-12-18T00:44:19;97401.75;;;0.81;69.57
73024;BME280;61199;47.526;8.538;2022-12-18T00:46:46;97403.22;;;0.88;69.21
73024;BME280;61199;47.526;8.538;2022-12-18T00:49:15;97410.81;;;0.93;69.47
73024;BME280;61199;47.526;8.538;2022-12-18T00:51:42;97417.84;;;0.88;69.20
73024;BME280;61199;47.526;8.538;2022-12-18T00:54:10;97425.72;;;0.83;69.27
73024;BME280;61199;47.526;8.538;2022-12-18T00:56:38;97434.09;;;0.90;69.28
73024;BME280;61199;47.526;8.538;2022-12-18T00:59:14;97439.81;;;0.99;68.43
73024;BME280;61199;47.526;8.538;2022-12-18T01:01:41;97445.78;;;1.00;68.87
73024;BME280;61199;47.526;8.538;2022-12-18T01:04:07;97441.38;;;1.03;68.70
73024;BME280;61199;47.526;8.538;2022-12-18T01:06:34;97424.06;;;1.07;69.11
73024;BME280;61199;47.526;8.538;2022-12-18T01:09:02;97445.69;;;1.03;68.91
73024;BME280;61199;47.526;8.538;2022-12-18T01:11:28;97442.22;;;1.04;69.22
73024;BME280;61199;47.526;8.538;2022-12-18T01:13:55;97441.91;;;1.13;68.93
73024;BME280;61199;47.526;8.538;2022-12-18T01:16:22;97437.34;;;0.96;68.91
73024;BME280;61199;47.526;8.538;2022-12-18T01:18:52;97443.91;;;1.05;69.37
73024;BME280;61199;47.526;8.538;2022-12-18T01:21:20;97450.63;;;1.09;69.27
73024;BME280;61199;47.526;8.538;2022-12-18T01:23:51;97457.56;;;1.07;69.04
73024;BME280;61199;47.526;8.538;2022-12-18T01:26:18;97460.28;;;1.04;68.98
73024;BME280;61199;47.526;8.538;2022-12-18T01:28:44;97459.25;;;1.08;68.75
73024;BME280;61199;47.526;8.538;2022-12-18T01:31:20;97460.94;;;1.09;68.62
73024;BME280;61199;47.526;8.538;2022-12-18T01:33:47;97464.22;;;1.14;68.85
73024;BME280;61199;47.526;8.538;2022-12-18T01:36:21;97460.00;;;1.11;68.49
73024;BME280;61199;47.526;8.538;2022-12-18T01:38:49;97458.38;;;1.09;69.12
73024;BME280;61199;47.526;8.538;2022-12-18T01:41:18;97458.44;;;1.07;68.35
73024;BME280;61199;47.526;8.538;2022-12-18T01:43:52;97471.06;;;1.15;68.65
73024;BME280;61199;47.526;8.538;2022-12-18T01:46:20;97471.97;;;1.14;68.65
73024;BME280;61199;47.526;8.538;2022-12-18T01:48:49;97474.41;;;0.92;68.96
73024;BME280;61199;47.526;8.538;2022-12-18T01:51:16;97471.06;;;0.90;69.12
73024;BME280;61199;47.526;8.538;2022-12-18T01:53:44;97475.34;;;0.90;69.42
73024;BME280;61199;47.526;8.538;2022-12-18T01:56:21;97477.00;;;0.92;69.98
73024;BME280;61199;47.526;8.538;2022-12-18T01:58:59;97487.16;;;0.97;69.29
73024;BME280;61199;47.526;8.538;2022-12-18T02:01:29;97488.84;;;0.98;69.69
73024;BME280;61199;47.526;8.538;2022-12-18T02:03:56;97486.97;;;1.03;69.17
73024;BME280;61199;47.526;8.538;2022-12-18T02:06:42;97471.53;;;1.01;69.50
73024;BME280;61199;47.526;8.538;2022-12-18T02:09:13;97469.69;;;1.05;69.41
73024;BME280;61199;47.526;8.538;2022-12-18T02:11:53;97478.03;;;0.87;69.41
73024;BME280;61199;47.526;8.538;2022-12-18T02:17:06;97477.16;;;0.62;70.40
73024;BME280;61199;47.526;8.538;2022-12-18T02:22:37;97468.22;;;0.72;69.51
73024;BME280;61199;47.526;8.538;2022-12-18T02:27:47;97479.84;;;0.59;69.97
73024;BME280;61199;47.526;8.538;2022-12-18T02:30:15;97476.34;;;0.60;70.16
73024;BME280;61199;47.526;8.538;2022-12-18T02:32:48;97474.56;;;0.62;69.76
73024;BME280;61199;47.526;8.538;2022-12-18T02:35:20;97479.72;;;0.62;70.02
73024;BME280;61199;47.526;8.538;2022-12-18T02:37:49;97478.75;;;0.66;70.21
73024;BME280;61199;47.526;8.538;2022-12-18T02:40:17;97474.19;;;0.74;69.63
73024;BME280;61199;47.526;8.538;2022-12-18T02:42:44;97476.84;;;0.71;69.90
73024;BME280;61199;47.526;8.538;2022-12-18T02:45:10;97490.84;;;0.64;70.46
73024;BME280;61199;47.526;8.538;2022-12-18T02:47:39;97498.47;;;0.67;70.42
73024;BME280;61199;47.526;8.538;2022-12-18T02:50:34;97494.53;;;0.55;70.45
73024;BME280;61199;47.526;8.538;2022-12-18T02:53:17;97493.75;;;0.53;70.58
73024;BME280;61199;47.526;8.538;2022-12-18T02:55:59;97496.75;;;0.40;70.89
73024;BME280;61199;47.526;8.538;2022-12-18T02:58:58;97495.88;;;0.41;71.41
73024;BME280;61199;47.526;8.538;2022-12-18T03:04:25;97493.59;;;0.58;70.86
73024;BME280;61199;47.526;8.538;2022-12-18T03:06:58;97499.56;;;0.60;70.44
73024;BME280;61199;47.526;8.538;2022-12-18T03:09:29;97497.25;;;0.51;70.50
73024;BME280;61199;47.526;8.538;2022-12-18T03:12:27;97507.56;;;0.51;70.38
73024;BME280;61199;47.526;8.538;2022-12-18T03:18:07;97506.63;;;0.53;71.04
73024;BME280;61199;47.526;8.538;2022-12-18T03:20:36;97509.06;;;0.58;70.71
73024;BME280;61199;47.526;8.538;2022-12-18T03:23:09;97514.38;;;0.53;70.85
73024;BME280;61199;47.526;8.538;2022-12-18T03:25:40;97505.00;;;0.51;70.62
73024;BME280;61199;47.526;8.538;2022-12-18T03:28:12;97504.88;;;0.54;70.44
73024;BME280;61199;47.526;8.538;2022-12-18T03:30:41;97502.31;;;0.54;70.40
73024;BME280;61199;47.526;8.538;2022-12-18T03:33:30;97514.22;;;0.58;69.90
73024;BME280;61199;47.526;8.538;2022-12-18T03:36:00;97511.75;;;0.55;70.20
73024;BME280;61199;47.526;8.538;2022-12-18T03:38:27;97510.94;;;0.53;70.30
73024;BME280;61199;47.526;8.538;2022-12-18T03:40:59;97513.66;;;0.48;70.70
73024;BME280;61199;47.526;8.538;2022-12-18T03:49:16;97521.91;;;0.32;70.57
73024;BME280;61199;47.526;8.538;2022-12-18T03:51:51;97533.59;;;0.43;70.42
73024;BME280;61199;47.526;8.538;2022-12-18T03:54:19;97529.41;;;0.39;70.32
73024;BME280;61199;47.526;8.538;2022-12-18T03:56:58;97533.00;;;0.34;70.86
73024;BME280;61199;47.526;8.538;2022-12-18T03:59:27;97529.50;;;0.36;70.43
73024;BME280;61199;47.526;8.538;2022-12-18T04:01:56;97533.78;;;0.36;70.68
73024;BME280;61199;47.526;8.538;2022-12-18T04:04:26;97538.13;;;0.35;70.99
73024;BME280;61199;47.526;8.538;2022-12-18T04:06:54;97534.16;;;0.24;70.85
73024;BME280;61199;47.526;8.538;2022-12-18T04:09:21;97530.03;;;0.18;71.02
73024;BME280;61199;47.526;8.538;2022-12-18T04:11:48;97536.06;;;0.19;71.27
73024;BME280;61199;47.526;8.538;2022-12-18T04:14:14;97534.75;;;0.33;71.08
73024;BME280;61199;47.526;8.538;2022-12-18T04:16:43;97535.50;;;0.37;71.09
73024;BME280;61199;47.526;8.538;2022-12-18T04:19:10;97539.66;;;0.41;70.83
73024;BME280;61199;47.526;8.538;2022-12-18T04:21:36;97537.09;;;0.41;70.85
73024;BME280;61199;47.526;8.538;2022-12-18T04:24:03;97548.13;;;0.46;70.67
73024;BME280;61199;47.526;8.538;2022-12-18T04:26:29;97552.25;;;0.50;70.40
73024;BME280;61199;47.526;8.538;2022-12-18T04:28:56;97553.34;;;0.43;71.08
73024;BME280;61199;47.526;8.538;2022-12-18T04:31:22;97561.06;;;0.43;71.17
73024;BME280;61199;47.526;8.538;2022-12-18T04:33:49;97567.75;;;0.48;70.79
73024;BME280;61199;47.526;8.538;2022-12-18T04:36:15;97563.94;;;0.61;70.67
73024;BME280;61199;47.526;8.538;2022-12-18T04:38:42;97565.72;;;0.59;70.53
73024;BME280;61199;47.526;8.538;2022-12-18T04:41:08;97565.59;;;0.64;70.44
73024;BME280;61199;47.526;8.538;2022-12-18T04:43:34;97565.38;;;0.70;70.69
73024;BME280;61199;47.526;8.538;2022-12-18T04:46:05;97561.16;;;0.67;69.95
73024;BME280;61199;47.526;8.538;2022-12-18T04:48:32;97563.59;;;0.72;69.84
73024;BME280;61199;47.526;8.538;2022-12-18T04:50:59;97564.41;;;0.74;69.98
73024;BME280;61199;47.526;8.538;2022-12-18T04:53:25;97562.84;;;0.68;70.30
73024;BME280;61199;47.526;8.538;2022-12-18T04:56:08;97562.06;;;0.66;70.17
73024;BME280;61199;47.526;8.538;2022-12-18T04:58:36;97560.22;;;0.70;70.73
73024;BME280;61199;47.526;8.538;2022-12-18T05:01:03;97554.16;;;0.71;70.48
73024;BME280;61199;47.526;8.538;2022-12-18T05:03:30;97548.81;;;0.78;70.42
73024;BME280;61199;47.526;8.538;2022-12-18T05:05:57;97546.91;;;0.83;69.90
73024;BME280;61199;47.526;8.538;2022-12-18T05:08:23;97544.38;;;0.82;70.33
73024;BME280;61199;47.526;8.538;2022-12-18T05:13:27;97549.44;;;0.85;70.09
73024;BME280;61199;47.526;8.538;2022-12-18T05:15:54;97550.94;;;0.92;70.13
73024;BME280;61199;47.526;8.538;2022-12-18T05:18:22;97553.56;;;0.90;70.09
73024;BME280;61199;47.526;8.538;2022-12-18T05:20:50;97546.72;;;0.89;70.34
73024;BME280;61199;47.526;8.538;2022-12-18T05:23:17;97555.25;;;0.91;69.99
73024;BME280;61199;47.526;8.538;2022-12-18T05:25:50;97558.06;;;0.84;70.79
73024;BME280;61199;47.526;8.538;2022-12-18T05:28:16;97566.50;;;0.89;70.80
73024;BME280;61199;47.526;8.538;2022-12-18T05:30:47;97572.34;;;0.94;69.92
73024;BME280;61199;47.526;8.538;2022-12-18T05:33:13;97571.66;;;0.89;70.84
73024;BME280;61199;47.526;8.538;2022-12-18T05:35:40;97571.47;;;0.95;70.14
73024;BME280;61199;47.526;8.538;2022-12-18T05:38:06;97574.03;;;0.95;70.59
73024;BME280;61199;47.526;8.538;2022-12-18T05:40:32;97566.31;;;0.95;70.76
73024;BME280;61199;47.526;8.538;2022-12-18T05:42:59;97569.97;;;0.88;71.10
73024;BME280;61199;47.526;8.538;2022-12-18T05:45:26;97573.78;;;1.02;70.46
73024;BME280;61199;47.526;8.538;2022-12-18T05:47:53;97572.84;;;1.05;70.45
73024;BME280;61199;47.526;8.538;2022-12-18T05:50:20;97567.69;;;1.05;69.60
73024;BME280;61199;47.526;8.538;2022-12-18T05:52:46;97574.72;;;1.00;70.43
73024;BME280;61199;47.526;8.538;2022-12-18T05:55:12;97575.38;;;1.06;69.94
73024;BME280;61199;47.526;8.538;2022-12-18T05:57:39;97570.16;;;1.08;69.76
73024;BME280;61199;47.526;8.538;2022-12-18T06:00:05;97573.75;;;1.04;70.51
73024;BME280;61199;47.526;8.538;2022-12-18T06:02:32;97580.41;;;1.11;70.43
73024;BME280;61199;47.526;8.538;2022-12-18T06:04:59;97571.84;;;1.09;69.77
73024;BME280;61199;47.526;8.538;2022-12-18T06:07:25;97573.72;;;1.05;70.24
73024;BME280;61199;47.526;8.538;2022-12-18T06:09:52;97575.25;;;1.11;69.90
73024;BME280;61199;47.526;8.538;2022-12-18T06:12:18;97579.59;;;1.09;70.09
73024;BME280;61199;47.526;8.538;2022-12-18T06:14:44;97575.25;;;1.11;69.79
73024;BME280;61199;47.526;8.538;2022-12-18T06:17:11;97574.34;;;1.12;69.75
73024;BME280;61199;47.526;8.538;2022-12-18T06:19:37;97581.38;;;1.07;70.18
73024;BME280;61199;47.526;8.538;2022-12-18T06:22:04;97589.72;;;1.15;69.49
73024;BME280;61199;47.526;8.538;2022-12-18T06:24:30;97586.16;;;1.19;70.29
73024;BME280;61199;47.526;8.538;2022-12-18T06:26:56;97595.03;;;1.10;69.46
73024;BME280;61199;47.526;8.538;2022-12-18T06:29:23;97592.16;;;1.19;69.71
73024;BME280;61199;47.526;8.538;2022-12-18T06:31:49;97592.16;;;1.19;69.67
73024;BME280;61199;47.526;8.538;2022-12-18T06:34:15;97594.88;;;1.15;69.46
73024;BME280;61199;47.526;8.538;2022-12-18T06:36:42;97589.03;;;1.10;69.61
73024;BME280;61199;47.526;8.538;2022-12-18T06:39:08;97597.44;;;1.15;70.02
73024;BME280;61199;47.526;8.538;2022-12-18T06:41:35;97587.88;;;1.18;69.85
73024;BME280;61199;47.526;8.538;2022-12-18T06:44:01;97595.63;;;1.18;69.79
73024;BME280;61199;47.526;8.538;2022-12-18T06:46:28;97600.13;;;1.12;69.79
73024;BME280;61199;47.526;8.538;2022-12-18T06:48:54;97603.63;;;1.11;69.80
73024;BME280;61199;47.526;8.538;2022-12-18T06:51:22;97608.56;;;1.17;69.75
73024;BME280;61199;47.526;8.538;2022-12-18T06:53:49;97612.94;;;1.15;69.94
73024;BME280;61199;47.526;8.538;2022-12-18T06:56:16;97623.22;;;1.16;69.74
73024;BME280;61199;47.526;8.538;2022-12-18T06:58:42;97626.56;;;1.18;70.19
73024;BME280;61199;47.526;8.538;2022-12-18T07:01:10;97620.78;;;1.12;70.46
73024;BME280;61199;47.526;8.538;2022-12-18T07:03:41;97624.94;;;1.16;70.16
73024;BME280;61199;47.526;8.538;2022-12-18T07:06:19;97637.16;;;1.11;69.89
73024;BME280;61199;47.526;8.538;2022-12-18T07:08:47;97636.31;;;1.09;70.61
73024;BME280;61199;47.526;8.538;2022-12-18T07:11:14;97633.59;;;1.13;70.52
73024;BME280;61199;47.526;8.538;2022-12-18T07:13:41;97634.47;;;1.14;70.31
73024;BME280;61199;47.526;8.538;2022-12-18T07:16:13;97630.97;;;1.15;69.87
73024;BME280;61199;47.526;8.538;2022-12-18T07:18:49;97643.84;;;1.16;70.35
73024;BME280;61199;47.526;8.538;2022-12-18T07:21:18;97647.00;;;0.98;71.39
73024;BME280;61199;47.526;8.538;2022-12-18T07:23:45;97642.72;;;0.97;71.69
73024;BME280;61199;47.526;8.538;2022-12-18T07:26:15;97648.53;;;1.04;71.20
73024;BME280;61199;47.526;8.538;2022-12-18T07:28:42;97645.84;;;1.07;70.89
73024;BME280;61199;47.526;8.538;2022-12-18T07:31:12;97651.63;;;1.15;70.23
73024;BME280;61199;47.526;8.538;2022-12-18T07:33:39;97646.19;;;1.24;70.05
73024;BME280;61199;47.526;8.538;2022-12-18T07:36:09;97644.78;;;1.14;70.18
73024;BME280;61199;47.526;8.538;2022-12-18T07:38:36;97649.19;;;1.10;70.42
73024;BME280;61199;47.526;8.538;2022-12-18T07:41:11;97653.13;;;1.22;70.08
73024;BME280;61199;47.526;8.538;2022-12-18T07:43:38;97657.44;;;1.21;70.06
73024;BME280;61199;47.526;8.538;2022-12-18T07:46:06;97662.53;;;1.23;70.68
73024;BME280;61199;47.526;8.538;2022-12-18T07:48:33;97657.09;;;1.32;70.42
73024;BME280;61199;47.526;8.538;2022-12-18T07:51:04;97660.44;;;1.35;69.79
73024;BME280;61199;47.526;8.538;2022-12-18T07:53:32;97669.72;;;1.41;69.57
73024;BME280;61199;47.526;8.538;2022-12-18T07:56:05;97673.19;;;1.40;69.78
73024;BME280;61199;47.526;8.538;2022-12-18T07:58:51;97672.13;;;1.45;69.71
73024;BME280;61199;47.526;8.538;2022-12-18T08:01:18;97668.91;;;1.39;69.74
73024;BME280;61199;47.526;8.538;2022-12-18T08:03:46;97672.31;;;1.39;69.90
73024;BME280;61199;47.526;8.538;2022-12-18T08:06:13;97666.38;;;1.37;69.83
73024;BME280;61199;47.526;8.538;2022-12-18T08:08:39;97670.66;;;1.38;70.29
73024;BME280;61199;47.526;8.538;2022-12-18T08:11:07;97679.25;;;1.39;70.34
73024;BME280;61199;47.526;8.538;2022-12-18T08:13:34;97683.22;;;1.49;70.29
73024;BME280;61199;47.526;8.538;2022-12-18T08:16:03;97686.75;;;1.45;69.94
73024;BME280;61199;47.526;8.538;2022-12-18T08:18:32;97693.56;;;1.47;69.97
73024;BME280;61199;47.526;8.538;2022-12-18T08:21:10;97693.44;;;1.52;69.75
73024;BME280;61199;47.526;8.538;2022-12-18T08:23:38;97693.44;;;1.52;69.77
73024;BME280;61199;47.526;8.538;2022-12-18T08:26:09;97690.88;;;1.50;69.87
73024;BME280;61199;47.526;8.538;2022-12-18T08:28:37;97696.91;;;1.51;69.93
73024;BME280;61199;47.526;8.538;2022-12-18T08:31:04;97689.16;;;1.51;70.09
73024;BME280;61199;47.526;8.538;2022-12-18T08:33:31;97701.16;;;1.52;69.48
73024;BME280;61199;47.526;8.538;2022-12-18T08:35:58;97701.53;;;1.14;70.99
73024;BME280;61199;47.526;8.538;2022-12-18T08:38:25;97708.19;;;1.21;70.58
73024;BME280;61199;47.526;8.538;2022-12-18T08:41:10;97695.00;;;1.30;70.86
73024;BME280;61199;47.526;8.538;2022-12-18T08:43:37;97695.41;;;1.44;70.47
73024;BME280;61199;47.526;8.538;2022-12-18T08:46:24;97697.16;;;1.43;70.40
73024;BME280;61199;47.526;8.538;2022-12-18T08:48:52;97689.31;;;1.46;70.43
73024;BME280;61199;47.526;8.538;2022-12-18T08:51:19;97693.28;;;1.56;70.37
73024;BME280;61199;47.526;8.538;2022-12-18T08:53:47;97693.31;;;1.55;70.21
73024;BME280;61199;47.526;8.538;2022-12-18T08:56:14;97687.28;;;1.56;70.25
73024;BME280;61199;47.526;8.538;2022-12-18T08:58:41;97683.38;;;1.70;70.07
73024;BME280;61199;47.526;8.538;2022-12-18T09:01:10;97675.63;;;1.70;69.67
73024;BME280;61199;47.526;8.538;2022-12-18T09:03:37;97673.97;;;1.68;69.59
73024;BME280;61199;47.526;8.538;2022-12-18T09:06:05;97675.66;;;1.69;69.80
73024;BME280;61199;47.526;8.538;2022-12-18T09:08:35;97668.69;;;1.71;69.36
73024;BME280;61199;47.526;8.538;2022-12-18T09:11:03;97667.59;;;1.78;69.85
73024;BME280;61199;47.526;8.538;2022-12-18T09:13:29;97673.56;;;1.80;69.24
73024;BME280;61199;47.526;8.538;2022-12-18T09:15:56;97679.09;;;1.43;69.31
73024;BME280;61199;47.526;8.538;2022-12-18T09:18:23;97671.72;;;1.57;68.78
73024;BME280;61199;47.526;8.538;2022-12-18T09:20:50;97661.88;;;1.68;68.44
73024;BME280;61199;47.526;8.538;2022-12-18T09:23:20;97667.81;;;1.72;67.85
73024;BME280;61199;47.526;8.538;2022-12-18T09:25:46;97664.16;;;1.77;67.89
73024;BME280;61199;47.526;8.538;2022-12-18T09:28:15;97662.03;;;1.90;68.45
73024;BME280;61199;47.526;8.538;2022-12-18T09:30:45;97670.47;;;1.95;68.33
73024;BME280;61199;47.526;8.538;2022-12-18T09:33:11;97674.94;;;1.90;67.91
73024;BME280;61199;47.526;8.538;2022-12-18T09:35:39;97670.31;;;1.99;68.21
73024;BME280;61199;47.526;8.538;2022-12-18T09:38:06;97674.53;;;2.02;67.89
73024;BME280;61199;47.526;8.538;2022-12-18T09:40:36;97680.69;;;1.98;68.90
73024;BME280;61199;47.526;8.538;2022-12-18T09:43:06;97681.31;;;2.04;68.55
73024;BME280;61199;47.526;8.538;2022-12-18T09:45:50;97677.59;;;2.13;67.79
73024;BME280;61199;47.526;8.538;2022-12-18T09:48:31;97676.00;;;2.09;67.78
73024;BME280;61199;47.526;8.538;2022-12-18T09:51:03;97681.28;;;2.06;68.15
73024;BME280;61199;47.526;8.538;2022-12-18T09:53:35;97679.38;;;2.11;68.19
73024;BME280;61199;47.526;8.538;2022-12-18T09:56:04;97672.75;;;2.04;68.39
73024;BME280;61199;47.526;8.538;2022-12-18T09:58:42;97677.28;;;1.97;68.19
73024;BME280;61199;47.526;8.538;2022-12-18T10:01:18;97673.53;;;2.06;67.94
73024;BME280;61199;47.526;8.538;2022-12-18T10:03:47;97686.28;;;2.10;67.81
73024;BME280;61199;47.526;8.538;2022-12-18T10:06:18;97680.97;;;2.15;67.40
73024;BME280;61199;47.526;8.538;2022-12-18T10:20:00;97679.06;;;2.20;67.55
73024;BME280;61199;47.526;8.538;2022-12-18T10:25:20;97684.25;;;2.20;67.82
73024;BME280;61199;47.526;8.538;2022-12-18T10:27:58;97690.94;;;2.25;67.59
73024;BME280;61199;47.526;8.538;2022-12-18T10:30:26;97685.91;;;2.21;67.84
73024;BME280;61199;47.526;8.538;2022-12-18T10:32:53;97688.44;;;2.22;68.26
73024;BME280;61199;47.526;8.538;2022-12-18T10:35:23;97681.34;;;2.29;68.07
73024;BME280;61199;47.526;8.538;2022-12-18T10:41:06;97685.97;;;2.19;69.33
73024;BME280;61199;47.526;8.538;2022-12-18T10:43:39;97676.41;;;2.21;68.84
73024;BME280;61199;47.526;8.538;2022-12-18T10:51:34;97684.31;;;2.17;69.17
73024;BME280;61199;47.526;8.538;2022-12-18T10:54:04;97689.56;;;2.15;68.90
73024;BME280;61199;47.526;8.538;2022-12-18T10:56:34;97690.41;;;2.16;68.77
73024;BME280;61199;47.526;8.538;2022-12-18T10:59:07;97694.56;;;2.20;68.82
73024;BME280;61199;47.526;8.538;2022-12-18T11:01:47;97694.56;;;2.20;69.07
73024;BME280;61199;47.526;8.538;2022-12-18T11:04:30;97689.91;;;2.29;68.95
73024;BME280;61199;47.526;8.538;2022-12-18T11:07:05;97675.16;;;2.33;68.53
73024;BME280;61199;47.526;8.538;2022-12-18T11:09:34;97673.78;;;2.23;68.65
73024;BME280;61199;47.526;8.538;2022-12-18T11:12:24;97671.94;;;2.26;68.94
73024;BME280;61199;47.526;8.538;2022-12-18T11:14:51;97671.97;;;2.25;68.97
73024;BME280;61199;47.526;8.538;2022-12-18T11:17:21;97667.44;;;2.31;68.36
73024;BME280;61199;47.526;8.538;2022-12-18T11:19:53;97665.00;;;2.27;68.57
73024;BME280;61199;47.526;8.538;2022-12-18T11:22:27;97659.53;;;2.36;69.04
73024;BME280;61199;47.526;8.538;2022-12-18T11:24:55;97650.66;;;2.43;68.29
73024;BME280;61199;47.526;8.538;2022-12-18T11:30:37;97641.38;;;2.37;67.75
73024;BME280;61199;47.526;8.538;2022-12-18T11:33:11;97630.84;;;2.43;67.45
73024;BME280;61199;47.526;8.538;2022-12-18T11:35:52;97635.25;;;2.40;67.79
73024;BME280;61199;47.526;8.538;2022-12-18T11:38:25;97630.66;;;2.48;67.54
73024;BME280;61199;47.526;8.538;2022-12-18T11:41:21;97636.63;;;2.50;68.30
73024;BME280;61199;47.526;8.538;2022-12-18T11:44:11;97636.56;;;2.51;67.49
73024;BME280;61199;47.526;8.538;2022-12-18T11:46:46;97633.16;;;2.49;66.97
73024;BME280;61199;47.526;8.538;2022-12-18T11:49:25;97631.56;;;2.47;67.41
73024;BME280;61199;47.526;8.538;2022-12-18T11:54:38;97629.75;;;2.01;67.45
73024;BME280;61199;47.526;8.538;2022-12-18T12:00:11;97651.66;;;1.13;70.39
73024;BME280;61199;47.526;8.538;2022-12-18T12:02:57;97637.66;;;0.94;71.34
73024;BME280;61199;47.526;8.538;2022-12-18T12:11:28;97643.38;;;1.04;71.68
73024;BME280;61199;47.526;8.538;2022-12-18T12:14:23;97636.31;;;1.36;70.35
73024;BME280;61199;47.526;8.538;2022-12-18T12:17:14;97631.97;;;1.63;69.61
73024;BME280;61199;47.526;8.538;2022-12-18T12:22:57;97617.38;;;2.11;68.88
73024;BME280;61199;47.526;8.538;2022-12-18T12:25:41;97615.81;;;1.58;69.62
73024;BME280;61199;47.526;8.538;2022-12-18T12:36:58;97621.16;;;1.52;68.82
73024;BME280;61199;47.526;8.538;2022-12-18T12:39:33;97620.47;;;1.47;69.63
73024;BME280;61199;47.526;8.538;2022-12-18T12:42:02;97620.97;;;1.06;71.46
73024;BME280;61199;47.526;8.538;2022-12-18T12:44:54;97615.31;;;1.21;71.39
73024;BME280;61199;47.526;8.538;2022-12-18T12:47:36;97616.50;;;1.37;70.67
73024;BME280;61199;47.526;8.538;2022-12-18T12:50:13;97609.75;;;1.07;71.26
73024;BME280;61199;47.526;8.538;2022-12-18T12:52:45;97610.91;;;1.24;70.93
73024;BME280;61199;47.526;8.538;2022-12-18T12:55:32;97593.56;;;1.54;70.09
73024;BME280;61199;47.526;8.538;2022-12-18T12:58:11;97603.75;;;1.83;69.17
73024;BME280;61199;47.526;8.538;2022-12-18T13:00:50;97602.69;;;1.88;68.38
73024;BME280;61199;47.526;8.538;2022-12-18T13:06:04;97606.34;;;1.83;68.71
73024;BME280;61199;47.526;8.538;2022-12-18T13:08:56;97600.59;;;1.75;69.28
73024;BME280;61199;47.526;8.538;2022-12-18T13:11:43;97605.63;;;1.78;69.13
73024;BME280;61199;47.526;8.538;2022-12-18T13:14:34;97620.81;;;1.62;69.64
73024;BME280;61199;47.526;8.538;2022-12-18T13:17:27;97603.31;;;1.70;68.80
73024;BME280;61199;47.526;8.538;2022-12-18T13:20:08;97603.16;;;1.99;68.14
73024;BME280;61199;47.526;8.538;2022-12-18T13:22:38;97605.19;;;1.90;68.04
73024;BME280;61199;47.526;8.538;2022-12-18T13:25:30;97610.09;;;1.73;68.61
73024;BME280;61199;47.526;8.538;2022-12-18T13:28:04;97607.34;;;1.53;69.73
73024;BME280;61199;47.526;8.538;2022-12-18T13:38:33;97603.84;;;2.27;68.40
73024;BME280;61199;47.526;8.538;2022-12-18T13:43:55;97594.81;;;2.39;68.40
73024;BME280;61199;47.526;8.538;2022-12-18T13:46:44;97601.31;;;2.49;67.21
73024;BME280;61199;47.526;8.538;2022-12-18T13:51:42;97600.38;;;2.51;67.81
73024;BME280;61199;47.526;8.538;2022-12-18T13:54:33;97599.38;;;2.54;67.86
73024;BME280;61199;47.526;8.538;2022-12-18T13:57:02;97603.72;;;2.30;68.25
73024;BME280;61199;47.526;8.538;2022-12-18T13:59:39;97599.00;;;2.41;68.00
73024;BME280;61199;47.526;8.538;2022-12-18T14:02:15;97598.94;;;2.43;67.75
73024;BME280;61199;47.526;8.538;2022-12-18T14:04:45;97596.38;;;2.43;67.13
73024;BME280;61199;47.526;8.538;2022-12-18T14:07:18;97595.72;;;2.59;67.21
73024;BME280;61199;47.526;8.538;2022-12-18T14:09:49;97593.09;;;2.61;66.56
73024;BME280;61199;47.526;8.538;2022-12-18T14:12:23;97592.88;;;2.67;66.77
73024;BME280;61199;47.526;8.538;2022-12-18T14:17:55;97600.91;;;2.59;66.33
73024;BME280;61199;47.526;8.538;2022-12-18T14:20:24;97600.19;;;2.33;66.91
73024;BME280;61199;47.526;8.538;2022-12-18T14:22:51;97603.75;;;1.83;69.04
73024;BME280;61199;47.526;8.538;2022-12-18T14:25:20;97615.25;;;1.73;68.63
73024;BME280;61199;47.526;8.538;2022-12-18T14:30:41;97617.19;;;1.42;71.57
73024;BME280;61199;47.526;8.538;2022-12-18T14:33:15;97609.44;;;1.68;70.89
73024;BME280;61199;47.526;8.538;2022-12-18T14:36:04;97598.84;;;1.75;70.52
73024;BME280;61199;47.526;8.538;2022-12-18T14:38:38;97600.94;;;1.89;69.67
73024;BME280;61199;47.526;8.538;2022-12-18T14:41:11;97600.63;;;1.98;69.20
73024;BME280;61199;47.526;8.538;2022-12-18T14:43:40;97607.06;;;2.11;68.40
73024;BME280;61199;47.526;8.538;2022-12-18T14:46:27;97602.50;;;2.17;68.89
73024;BME280;61199;47.526;8.538;2022-12-18T14:48:55;97607.00;;;2.35;68.24
73024;BME280;61199;47.526;8.538;2022-12-18T14:51:24;97609.72;;;2.54;67.58
73024;BME280;61199;47.526;8.538;2022-12-18T14:53:59;97603.59;;;2.56;67.34
73024;BME280;61199;47.526;8.538;2022-12-18T14:56:27;97603.09;;;2.70;67.37
73024;BME280;61199;47.526;8.538;2022-12-18T14:59:03;97600.19;;;2.77;66.56
73024;BME280;61199;47.526;8.538;2022-12-18T15:04:01;97603.66;;;2.78;66.61
73024;BME280;61199;47.526;8.538;2022-12-18T15:06:32;97595.09;;;2.76;66.78
73024;BME280;61199;47.526;8.538;2022-12-18T15:09:00;97589.81;;;2.78;66.84